Terminal Aerodrome Forecast
Issued by NWS

Home | Current Version | Previous Version | Text Only | Print | Product List | Glossary On
Versions: 1 2 3 4 5 6 7 8 9 10 11 12 13 14 15 16 17 18 19 20 21 22
000
FTUS42 KJAX 251700
TAFVQQ
TAF
KVQQ 251720Z 2518/2618 25008KT P6SM VCTS SCT040CB BKN080
      TEMPO 2518/2520 VRB15G25KT 3SM TSRA BKN030CB
     FM260000 24002KT P6SM FEW030 SCT250
      TEMPO 2607/2611 5SM BR
     FM261700 26008KT P6SM VCTS SCT040CB=

USA.gov is the U.S. government's official web portal to all federal, state and local government web resources and services.